createdAt,value
2023-09-15T00:02:13.094Z,99071.45
2023-09-15T00:04:40.049Z,99071.30
2023-09-15T00:07:07.040Z,99073.80
2023-09-15T00:09:34.023Z,99075.08
2023-09-15T00:12:01.055Z,99076.58
2023-09-15T00:14:27.922Z,99077.58
2023-09-15T00:16:55.187Z,99077.49
2023-09-15T00:19:23.568Z,99076.99
2023-09-15T00:21:50.532Z,99078.31
2023-09-15T00:24:17.840Z,99078.90
2023-09-15T00:26:45.041Z,99080.42
2023-09-15T00:29:13.339Z,99075.57
2023-09-15T00:31:41.487Z,99078.35
2023-09-15T00:34:08.715Z,99079.89
2023-09-15T00:36:36.489Z,99082.70
2023-09-15T00:39:04.051Z,99080.33
2023-09-15T00:41:31.578Z,99082.74
2023-09-15T00:43:59.215Z,99082.77
2023-09-15T00:46:26.545Z,99080.71
2023-09-15T00:48:56.455Z,99084.29
2023-09-15T00:51:24.094Z,99087.48
2023-09-15T00:53:51.430Z,99086.25
2023-09-15T00:56:19.340Z,99084.80
2023-09-15T00:58:49.089Z,99085.43
2023-09-15T01:01:17.963Z,99082.20
2023-09-15T01:03:47.496Z,99083.11
2023-09-15T01:06:16.666Z,99089.69
2023-09-15T01:08:43.701Z,99084.52
2023-09-15T01:11:11.236Z,99091.80
2023-09-15T01:13:38.621Z,99087.27
2023-09-15T01:16:17.166Z,99089.26
2023-09-15T01:18:51.662Z,99090.91
2023-09-15T01:21:38.283Z,99093.87
2023-09-15T01:24:06.232Z,99092.39
2023-09-15T01:26:48.104Z,99091.09
2023-09-15T01:29:31.533Z,99092.08
2023-09-15T01:32:02.016Z,99092.30
2023-09-15T01:34:29.093Z,99092.48
2023-09-15T01:36:56.016Z,99091.77
2023-09-15T01:39:22.907Z,99095.40
2023-09-15T01:41:49.725Z,99095.34
2023-09-15T01:44:16.562Z,99094.81
2023-09-15T01:46:43.420Z,99098.27
2023-09-15T01:49:11.587Z,99095.54
2023-09-15T01:51:39.748Z,99099.32
2023-09-15T01:54:08.316Z,99100.30
2023-09-15T01:56:35.194Z,99098.83
2023-09-15T01:59:02.207Z,99100.91
2023-09-15T02:01:29.292Z,99102.10
2023-09-15T02:03:57.707Z,99102.89
2023-09-15T02:06:24.694Z,99104.42
2023-09-15T02:08:52.728Z,99107.64
2023-09-15T02:11:20.918Z,99108.05
2023-09-15T02:13:48.030Z,99111.02
2023-09-15T02:16:14.976Z,99109.67
2023-09-15T02:18:42.088Z,99109.98
2023-09-15T02:21:08.961Z,99110.85
2023-09-15T02:23:36.212Z,99110.45
2023-09-15T02:26:04.775Z,99101.80
2023-09-15T02:28:33.285Z,99103.64
2023-09-15T02:31:03.293Z,99103.20
2023-09-15T02:33:30.334Z,99105.65
2023-09-15T02:35:57.321Z,99107.73
2023-09-15T02:38:24.981Z,99107.57
2023-09-15T02:40:51.884Z,99105.36
2023-09-15T02:43:18.787Z,99109.93
2023-09-15T02:45:45.719Z,99112.76
2023-09-15T02:48:13.892Z,99108.07
2023-09-15T02:50:43.062Z,99109.98
2023-09-15T02:53:11.267Z,99109.79
2023-09-15T02:55:39.517Z,99107.34
2023-09-15T02:58:06.986Z,99105.20
2023-09-15T03:00:34.501Z,99107.52
2023-09-15T03:03:01.724Z,99105.27
2023-09-15T03:05:28.916Z,99104.22
2023-09-15T03:07:56.407Z,99106.03
2023-09-15T03:10:23.454Z,99107.08
2023-09-15T03:13:07.207Z,99105.19
2023-09-15T03:15:36.772Z,99110.75
2023-09-15T03:18:06.291Z,99116.94
2023-09-15T03:20:33.390Z,99118.55
2023-09-15T03:23:01.051Z,99123.41
2023-09-15T03:25:28.105Z,99124.13
2023-09-15T03:27:55.202Z,99125.86
2023-09-15T03:30:22.659Z,99128.48
2023-09-15T03:32:50.327Z,99130.77
2023-09-15T03:35:17.392Z,99130.02
2023-09-15T03:37:44.290Z,99132.27
2023-09-15T03:40:13.050Z,99126.98
2023-09-15T03:42:40.510Z,99130.02
2023-09-15T03:45:09.416Z,99125.91
2023-09-15T03:47:52.366Z,99130.55
2023-09-15T03:50:35.258Z,99128.21
2023-09-15T03:53:02.180Z,99129.48
2023-09-15T03:55:29.138Z,99133.25
2023-09-15T03:57:56.183Z,99135.67
2023-09-15T04:00:23.384Z,99134.40
2023-09-15T04:02:50.417Z,99130.25
2023-09-15T04:05:17.377Z,99131.57
2023-09-15T04:07:59.724Z,99129.08
2023-09-15T04:10:26.916Z,99135.45
2023-09-15T04:12:53.837Z,99133.30
2023-09-15T04:15:20.720Z,99139.67
2023-09-15T04:18:02.776Z,99140.33
2023-09-15T04:20:44.662Z,99139.00
2023-09-15T04:23:13.093Z,99142.90
2023-09-15T04:25:56.047Z,99146.52
2023-09-15T04:28:23.000Z,99154.73
2023-09-15T04:30:50.257Z,99160.90
2023-09-15T04:33:17.286Z,99156.46
2023-09-15T04:35:44.576Z,99163.89
2023-09-15T04:38:11.485Z,99167.55
2023-09-15T04:40:38.920Z,99170.33
2023-09-15T04:43:05.972Z,99172.34
2023-09-15T04:45:33.566Z,99175.73
2023-09-15T04:48:01.853Z,99177.67
2023-09-15T04:50:29.105Z,99182.02
2023-09-15T04:52:56.995Z,99182.22
2023-09-15T04:55:24.174Z,99179.86
2023-09-15T04:57:51.264Z,99183.73
2023-09-15T05:00:24.895Z,99183.56
2023-09-15T05:02:59.776Z,99184.15
2023-09-15T05:05:28.114Z,99182.26
2023-09-15T05:07:55.416Z,99179.10
2023-09-15T05:10:23.604Z,99176.50
2023-09-15T05:12:50.913Z,99176.67
2023-09-15T05:15:20.526Z,99174.03
2023-09-15T05:17:47.495Z,99175.39
2023-09-15T05:20:15.580Z,99180.34
2023-09-15T05:22:42.507Z,99180.48
2023-09-15T05:25:10.398Z,99181.55
2023-09-15T05:27:37.724Z,99181.11
2023-09-15T05:30:05.928Z,99182.33
2023-09-15T05:32:35.174Z,99185.37
2023-09-15T05:35:02.349Z,99181.19
2023-09-15T05:37:29.360Z,99187.83
2023-09-15T05:39:56.254Z,99189.23
2023-09-15T05:42:23.826Z,99191.08
2023-09-15T05:44:50.650Z,99194.62
2023-09-15T05:47:17.533Z,99196.58
2023-09-15T05:49:44.421Z,99197.20
2023-09-15T05:52:11.655Z,99201.86
2023-09-15T05:54:38.575Z,99208.60
2023-09-15T05:57:06.686Z,99204.33
2023-09-15T05:59:33.592Z,99201.59
2023-09-15T06:02:00.532Z,99199.83
2023-09-15T06:04:27.768Z,99197.59
2023-09-15T06:06:55.164Z,99199.60
2023-09-15T06:09:22.133Z,99203.41
2023-09-15T06:11:48.966Z,99202.44
2023-09-15T06:14:16.893Z,99204.87
2023-09-15T06:16:43.812Z,99205.52
2023-09-15T06:19:10.930Z,99206.58
2023-09-15T06:21:38.026Z,99205.02
2023-09-15T06:24:06.197Z,99207.94
2023-09-15T06:26:34.970Z,99206.77
2023-09-15T06:29:01.861Z,99202.06
2023-09-15T06:31:28.896Z,99199.02
2023-09-15T06:33:55.984Z,99199.45
2023-09-15T06:36:23.120Z,99201.95
2023-09-15T06:38:51.295Z,99202.09
2023-09-15T06:41:18.167Z,99205.24
2023-09-15T06:43:45.124Z,99202.78
2023-09-15T06:46:12.391Z,99199.67
2023-09-15T06:48:39.363Z,99190.38
2023-09-15T06:51:06.235Z,99193.27
2023-09-15T06:53:33.075Z,99194.56
2023-09-15T06:55:59.944Z,99195.41
2023-09-15T06:58:28.011Z,99191.55
2023-09-15T07:00:58.751Z,99194.46
2023-09-15T07:03:27.840Z,99194.75
2023-09-15T07:05:54.892Z,99193.06
2023-09-15T07:08:21.761Z,99200.78
2023-09-15T07:10:52.589Z,99202.71
2023-09-15T07:13:20.179Z,99204.20
2023-09-15T07:15:48.608Z,99203.80
2023-09-15T07:18:15.662Z,99205.96
2023-09-15T07:20:43.462Z,99206.12
2023-09-15T07:23:11.177Z,99207.73
2023-09-15T07:25:38.500Z,99211.70
2023-09-15T07:28:06.452Z,99210.98
2023-09-15T07:30:33.541Z,99210.42
2023-09-15T07:33:02.574Z,99213.39
2023-09-15T07:35:29.965Z,99209.79
2023-09-15T07:37:57.129Z,99210.64
2023-09-15T07:40:25.472Z,99209.45
2023-09-15T07:42:52.815Z,99209.80
2023-09-15T07:45:19.935Z,99207.38
2023-09-15T07:47:47.441Z,99203.25
2023-09-15T07:50:18.053Z,99208.04
2023-09-15T07:52:46.779Z,99206.79
2023-09-15T07:55:14.274Z,99209.08
2023-09-15T07:57:41.474Z,99207.96
2023-09-15T08:00:12.215Z,99206.59
2023-09-15T08:02:41.452Z,99208.27
2023-09-15T08:05:09.266Z,99212.15
2023-09-15T08:07:36.328Z,99211.44
2023-09-15T08:10:05.130Z,99208.52
2023-09-15T08:12:32.372Z,99209.15
2023-09-15T08:14:59.347Z,99202.43
2023-09-15T08:17:33.649Z,99202.20
2023-09-15T08:20:02.280Z,99198.07
2023-09-15T08:22:29.645Z,99198.21
2023-09-15T08:24:56.805Z,99197.98
2023-09-15T08:27:23.764Z,99197.97
2023-09-15T08:29:50.756Z,99196.55
2023-09-15T08:32:18.289Z,99191.67
2023-09-15T08:34:45.218Z,99189.00
2023-09-15T08:37:14.251Z,99192.14
2023-09-15T08:39:41.273Z,99194.40
2023-09-15T08:42:22.274Z,99194.81
2023-09-15T08:44:50.205Z,99186.30
2023-09-15T08:47:19.497Z,99188.92
2023-09-15T08:49:47.228Z,99189.00
2023-09-15T08:52:17.891Z,99189.84
2023-09-15T08:54:46.701Z,99192.80
2023-09-15T08:57:15.707Z,99193.23
2023-09-15T08:59:42.798Z,99187.59
2023-09-15T09:02:13.330Z,99186.55
2023-09-15T09:04:40.516Z,99191.14
2023-09-15T09:07:08.588Z,99189.93
2023-09-15T09:09:36.037Z,99190.91
2023-09-15T09:12:03.091Z,99195.45
2023-09-15T09:14:29.935Z,99193.69
2023-09-15T09:16:57.722Z,99194.12
2023-09-15T09:19:36.110Z,99197.71
2023-09-15T09:22:03.600Z,99194.70
2023-09-15T09:24:30.544Z,99189.95
2023-09-15T09:26:57.700Z,99190.05
2023-09-15T09:29:29.076Z,99188.55
2023-09-15T09:31:56.658Z,99190.08
2023-09-15T09:34:38.874Z,99189.21
2023-09-15T09:37:10.867Z,99193.12
2023-09-15T09:39:38.341Z,99191.82
2023-09-15T09:42:06.296Z,99192.20
2023-09-15T09:44:37.635Z,99189.52
2023-09-15T09:47:09.263Z,99188.73
2023-09-15T09:49:37.544Z,99188.42
2023-09-15T09:52:05.403Z,99184.55
2023-09-15T09:54:35.532Z,99179.98
2023-09-15T09:57:04.166Z,99182.30
2023-09-15T09:59:31.216Z,99176.34
2023-09-15T10:01:58.112Z,99179.89
2023-09-15T10:04:25.078Z,99179.39
2023-09-15T10:06:53.015Z,99177.98
2023-09-15T10:09:20.277Z,99174.50
2023-09-15T10:11:48.132Z,99173.70
2023-09-15T10:14:15.345Z,99176.83
2023-09-15T10:16:42.319Z,99175.90
2023-09-15T10:19:10.800Z,99174.02
2023-09-15T10:21:39.212Z,99172.77
2023-09-15T10:24:08.684Z,99167.50
2023-09-15T10:26:36.444Z,99161.90
2023-09-15T10:29:05.488Z,99154.64
2023-09-15T10:31:35.473Z,99160.44
2023-09-15T10:34:03.730Z,99156.60
2023-09-15T10:36:30.709Z,99154.02
2023-09-15T10:38:58.830Z,99146.73
2023-09-15T10:41:29.085Z,99147.92
2023-09-15T10:43:56.657Z,99145.23
2023-09-15T10:46:38.631Z,99145.64
2023-09-15T10:49:21.753Z,99146.77
2023-09-15T10:52:04.319Z,99146.06
2023-09-15T10:54:33.165Z,99148.00
2023-09-15T10:57:01.230Z,99151.55
2023-09-15T10:59:29.009Z,99144.77
2023-09-15T11:01:56.884Z,99146.12
2023-09-15T11:04:27.122Z,99137.92
2023-09-15T11:06:55.197Z,99137.91
2023-09-15T11:09:25.281Z,99133.65
2023-09-15T11:11:53.515Z,99142.02
2023-09-15T11:14:22.249Z,99146.25
2023-09-15T11:16:51.575Z,99144.05
2023-09-15T11:19:20.017Z,99143.84
2023-09-15T11:21:48.227Z,99145.61
2023-09-15T11:24:16.483Z,99144.44
2023-09-15T11:26:47.783Z,99145.58
2023-09-15T11:29:15.846Z,99140.90
2023-09-15T11:31:45.297Z,99142.92
2023-09-15T11:34:17.303Z,99140.52
2023-09-15T11:36:45.063Z,99134.69
2023-09-15T11:39:13.071Z,99134.67
2023-09-15T11:41:41.566Z,99134.15
2023-09-15T11:44:10.029Z,99131.73
2023-09-15T11:46:45.221Z,99124.98
2023-09-15T11:49:13.173Z,99128.90
2023-09-15T11:51:40.838Z,99125.35
2023-09-15T11:54:07.995Z,99122.16
2023-09-15T11:56:35.439Z,99122.19
2023-09-15T11:59:02.935Z,99126.35
2023-09-15T12:01:30.990Z,99127.91
2023-09-15T12:03:58.726Z,99125.91
2023-09-15T12:06:27.437Z,99124.61
2023-09-15T12:08:55.362Z,99117.54
2023-09-15T12:11:22.619Z,99119.45
2023-09-15T12:13:53.307Z,99115.84
2023-09-15T12:16:29.188Z,99105.71
2023-09-15T12:18:57.140Z,99110.06
2023-09-15T12:21:28.610Z,99104.92
2023-09-15T12:24:07.853Z,99102.63
2023-09-15T12:26:34.848Z,99102.35
2023-09-15T12:29:02.058Z,99098.67
2023-09-15T12:31:29.531Z,99098.95
2023-09-15T12:33:57.392Z,99092.71
2023-09-15T12:36:25.202Z,99088.73
2023-09-15T12:38:52.397Z,99085.15
2023-09-15T12:41:20.255Z,99088.47
2023-09-15T12:43:47.481Z,99085.25
2023-09-15T12:46:15.624Z,99083.07
2023-09-15T12:48:42.770Z,99084.94
2023-09-15T12:51:09.800Z,99086.08
2023-09-15T12:53:36.787Z,99088.90
2023-09-15T12:56:03.909Z,99093.17
2023-09-15T12:58:30.966Z,99092.30
2023-09-15T13:00:58.016Z,99088.31
2023-09-15T13:03:25.769Z,99086.73
2023-09-15T13:05:53.626Z,99080.00
2023-09-15T13:08:20.634Z,99078.14
2023-09-15T13:10:47.542Z,99077.79
2023-09-15T13:13:16.091Z,99080.66
2023-09-15T13:15:43.747Z,99075.97
2023-09-15T13:18:11.204Z,99078.42
2023-09-15T13:20:38.168Z,99073.81
2023-09-15T13:23:05.073Z,99069.54
2023-09-15T13:25:32.088Z,99069.09
2023-09-15T13:27:59.179Z,99067.13
2023-09-15T13:30:26.796Z,99056.68
2023-09-15T13:32:53.879Z,99058.73
2023-09-15T13:35:21.120Z,99062.31
2023-09-15T13:37:48.126Z,99058.86
2023-09-15T13:40:15.191Z,99056.40
2023-09-15T13:42:42.187Z,99052.95
2023-09-15T13:45:14.304Z,99053.41
2023-09-15T13:47:41.425Z,99049.09
2023-09-15T13:50:08.607Z,99047.09
2023-09-15T13:52:35.553Z,99047.31
2023-09-15T13:55:03.408Z,99040.98
2023-09-15T13:57:30.796Z,99041.99
2023-09-15T13:59:58.193Z,99038.13
2023-09-15T14:02:27.249Z,99030.30
2023-09-15T14:04:57.358Z,99028.90
2023-09-15T14:07:25.188Z,99028.59
2023-09-15T14:09:52.410Z,99026.70
2023-09-15T14:12:20.171Z,99023.84
2023-09-15T14:14:47.178Z,99021.69
2023-09-15T14:17:14.221Z,99023.77
2023-09-15T14:19:41.706Z,99022.02
2023-09-15T14:22:08.676Z,99024.55
2023-09-15T14:24:37.256Z,99021.05
2023-09-15T14:27:04.748Z,99020.23
2023-09-15T14:29:33.235Z,99018.97
2023-09-15T14:32:01.595Z,99024.15
2023-09-15T14:34:28.864Z,99022.83
2023-09-15T14:36:59.330Z,99026.24
2023-09-15T14:39:28.556Z,99021.34
2023-09-15T14:41:56.060Z,99019.64
2023-09-15T14:44:23.384Z,99018.43
2023-09-15T14:46:51.693Z,99013.73
2023-09-15T14:49:19.051Z,99010.77
2023-09-15T14:51:46.253Z,99010.95
2023-09-15T14:54:13.560Z,99004.66
2023-09-15T14:56:41.168Z,99004.52
2023-09-15T14:59:10.817Z,99006.51
2023-09-15T15:01:39.439Z,99002.03
2023-09-15T15:04:06.420Z,99005.69
2023-09-15T15:06:33.436Z,99004.66
2023-09-15T15:09:00.851Z,99008.61
2023-09-15T15:11:28.029Z,99005.41
2023-09-15T15:13:54.929Z,98996.21
2023-09-15T15:16:22.234Z,99005.84
2023-09-15T15:18:51.831Z,99003.98
2023-09-15T15:21:22.707Z,99005.10
2023-09-15T15:23:50.875Z,99004.89
2023-09-15T15:26:19.051Z,99008.11
2023-09-15T15:28:46.975Z,99004.16
2023-09-15T15:31:16.673Z,99007.17
2023-09-15T15:34:09.996Z,99007.91
2023-09-15T15:37:05.955Z,99012.55
2023-09-15T15:39:53.809Z,99013.26
2023-09-15T15:42:27.892Z,99014.20
2023-09-15T15:44:57.059Z,99017.08
2023-09-15T15:47:24.111Z,99016.47
2023-09-15T15:49:53.198Z,99014.77
2023-09-15T15:52:26.791Z,99015.27
2023-09-15T15:54:56.157Z,99015.70
2023-09-15T15:57:23.179Z,99013.64
2023-09-15T15:59:51.083Z,99014.69
2023-09-15T16:02:17.963Z,99013.00
2023-09-15T16:04:46.305Z,99013.28
2023-09-15T16:07:13.171Z,99013.20
2023-09-15T16:09:40.046Z,99011.83
2023-09-15T16:12:07.321Z,99013.96
2023-09-15T16:14:36.122Z,99013.74
2023-09-15T16:17:02.963Z,99017.15
2023-09-15T16:19:29.763Z,99014.55
2023-09-15T16:21:56.542Z,99013.50
2023-09-15T16:24:23.497Z,99012.73
2023-09-15T16:26:50.542Z,99015.91
2023-09-15T16:29:17.366Z,99020.71
2023-09-15T16:31:44.334Z,99020.16
2023-09-15T16:34:11.194Z,99022.04
2023-09-15T16:36:38.157Z,99021.23
2023-09-15T16:39:05.308Z,99019.98
2023-09-15T16:41:32.328Z,99024.27
2023-09-15T16:43:59.524Z,99022.07
2023-09-15T16:46:26.465Z,99018.02
2023-09-15T16:48:53.329Z,99020.45
2023-09-15T16:51:20.265Z,99019.33
2023-09-15T16:53:47.070Z,99021.45
2023-09-15T16:56:14.923Z,99019.19
2023-09-15T16:58:42.586Z,99026.67
2023-09-15T17:01:09.501Z,99033.69
2023-09-15T17:03:36.743Z,99036.73
2023-09-15T17:06:04.652Z,99040.57
2023-09-15T17:08:31.570Z,99046.53
2023-09-15T17:11:01.591Z,99044.80
2023-09-15T17:13:28.591Z,99046.25
2023-09-15T17:15:55.663Z,99046.98
2023-09-15T17:18:22.593Z,99054.30
2023-09-15T17:20:49.560Z,99059.25
2023-09-15T17:23:16.473Z,99060.92
2023-09-15T17:25:43.609Z,99062.88
2023-09-15T17:28:10.415Z,99062.06
2023-09-15T17:30:37.392Z,99063.73
2023-09-15T17:33:04.689Z,99063.39
2023-09-15T17:35:31.597Z,99069.40
2023-09-15T17:37:58.575Z,99067.67
2023-09-15T17:40:25.419Z,99066.70
2023-09-15T17:42:53.041Z,99070.98
2023-09-15T17:45:22.713Z,99074.06
2023-09-15T17:47:49.774Z,99072.50
2023-09-15T17:50:17.024Z,99074.63
2023-09-15T17:52:44.782Z,99071.18
2023-09-15T17:55:13.926Z,99074.27
2023-09-15T17:57:45.364Z,99077.70
2023-09-15T18:00:13.186Z,99076.47
2023-09-15T18:02:40.200Z,99077.79
2023-09-15T18:05:07.253Z,99078.10
2023-09-15T18:07:34.134Z,99078.38
2023-09-15T18:10:02.788Z,99080.86
2023-09-15T18:12:30.045Z,99079.81
2023-09-15T18:14:57.076Z,99085.84
2023-09-15T18:17:24.010Z,99090.25
2023-09-15T18:19:52.379Z,99090.61
2023-09-15T18:22:19.235Z,99090.67
2023-09-15T18:24:46.465Z,99089.45
2023-09-15T18:27:13.331Z,99094.77
2023-09-15T18:29:40.608Z,99095.64
2023-09-15T18:32:08.866Z,99096.86
2023-09-15T18:34:35.907Z,99098.48
2023-09-15T18:37:05.602Z,99102.10
2023-09-15T18:39:34.105Z,99102.83
2023-09-15T18:42:01.628Z,99102.37
2023-09-15T18:44:30.187Z,99103.08
2023-09-15T18:46:58.439Z,99100.36
2023-09-15T18:49:25.349Z,99102.69
2023-09-15T18:51:52.650Z,99101.07
2023-09-15T18:54:22.788Z,99099.09
2023-09-15T18:56:49.755Z,99099.33
2023-09-15T18:59:16.557Z,99101.44
2023-09-15T19:01:43.415Z,99101.36
2023-09-15T19:04:10.452Z,99100.30
2023-09-15T19:06:38.581Z,99102.88
2023-09-15T19:09:05.705Z,99100.55
2023-09-15T19:11:32.653Z,99100.84
2023-09-15T19:13:59.729Z,99101.48
2023-09-15T19:16:26.686Z,99101.95
2023-09-15T19:18:59.060Z,99106.23
2023-09-15T19:21:26.713Z,99102.95
2023-09-15T19:23:54.814Z,99107.54
2023-09-15T19:26:21.727Z,99105.48
2023-09-15T19:28:51.300Z,99106.54
2023-09-15T19:31:19.577Z,99105.88
2023-09-15T19:33:46.900Z,99103.45
2023-09-15T19:36:14.501Z,99102.74
2023-09-15T19:38:41.350Z,99108.35
2023-09-15T19:41:10.194Z,99104.88
2023-09-15T19:43:37.628Z,99107.48
2023-09-15T19:46:04.605Z,99105.15
2023-09-15T19:48:31.578Z,99101.29
2023-09-15T19:50:59.525Z,99100.49
2023-09-15T19:53:27.795Z,99101.86
2023-09-15T19:55:54.716Z,99107.02
2023-09-15T19:58:22.265Z,99107.45
2023-09-15T20:00:50.066Z,99104.49
2023-09-15T20:03:17.049Z,99106.71
2023-09-15T20:05:43.930Z,99106.06
2023-09-15T20:08:10.806Z,99104.82
2023-09-15T20:10:37.708Z,99104.50
2023-09-15T20:13:04.777Z,99106.77
2023-09-15T20:15:31.871Z,99108.00
2023-09-15T20:17:59.766Z,99102.85
2023-09-15T20:20:26.922Z,99103.73
2023-09-15T20:22:54.916Z,99102.98
2023-09-15T20:25:27.616Z,99104.20
2023-09-15T20:27:55.177Z,99101.62
2023-09-15T20:30:22.709Z,99105.45
2023-09-15T20:32:51.247Z,99101.87
2023-09-15T20:35:18.376Z,99100.44
2023-09-15T20:37:45.215Z,99098.48
2023-09-15T20:40:12.114Z,99099.13
2023-09-15T20:42:38.960Z,99099.30
2023-09-15T20:45:06.403Z,99101.95
2023-09-15T20:47:33.684Z,99100.29
2023-09-15T20:50:00.604Z,99100.69
2023-09-15T20:52:27.860Z,99097.57
2023-09-15T20:54:54.882Z,99098.58
2023-09-15T20:57:21.911Z,99095.92
2023-09-15T20:59:49.192Z,99092.05
2023-09-15T21:02:15.995Z,99093.55
2023-09-15T21:04:42.886Z,99096.55
2023-09-15T21:07:09.838Z,99092.56
2023-09-15T21:09:36.715Z,99094.70
2023-09-15T21:12:04.744Z,99095.05
2023-09-15T21:14:31.863Z,99092.55
2023-09-15T21:16:58.892Z,99096.20
2023-09-15T21:19:26.001Z,99094.60
2023-09-15T21:21:52.927Z,99095.80
2023-09-15T21:24:19.766Z,99096.81
2023-09-15T21:26:46.636Z,99094.82
2023-09-15T21:29:13.849Z,99094.78
2023-09-15T21:31:40.763Z,99093.88
2023-09-15T21:34:07.836Z,99094.33
2023-09-15T21:36:34.627Z,99089.67
2023-09-15T21:39:01.448Z,99092.19
2023-09-15T21:41:28.572Z,99086.11
2023-09-15T21:43:56.412Z,99085.39
2023-09-15T21:46:23.481Z,99085.70
2023-09-15T21:48:50.635Z,99084.58
2023-09-15T21:51:17.866Z,99080.81
2023-09-15T21:53:44.680Z,99084.70
2023-09-15T21:56:11.723Z,99080.55
2023-09-15T21:58:38.628Z,99081.77
2023-09-15T22:01:05.621Z,99081.97
2023-09-15T22:03:33.388Z,99082.30
2023-09-15T22:06:00.423Z,99080.39
2023-09-15T22:08:27.957Z,99078.06
2023-09-15T22:10:54.894Z,99074.65
2023-09-15T22:13:22.170Z,99077.91
2023-09-15T22:15:49.203Z,99078.98
2023-09-15T22:18:17.236Z,99074.59
2023-09-15T22:20:44.086Z,99079.61
2023-09-15T22:23:12.621Z,99085.07
2023-09-15T22:25:40.076Z,99083.64
2023-09-15T22:28:07.794Z,99089.15
2023-09-15T22:30:34.977Z,99090.13
2023-09-15T22:33:03.733Z,99089.69
2023-09-15T22:35:31.797Z,99091.03
2023-09-15T22:37:59.961Z,99091.10
2023-09-15T22:40:27.297Z,99090.13
2023-09-15T22:42:54.452Z,99083.39
2023-09-15T22:45:23.852Z,99082.38
2023-09-15T22:47:58.824Z,99079.42
2023-09-15T22:50:26.670Z,99072.58
2023-09-15T22:52:54.232Z,99069.43
2023-09-15T22:55:22.157Z,99068.64
2023-09-15T22:57:49.291Z,99064.10
2023-09-15T23:00:18.015Z,99064.45
2023-09-15T23:02:49.458Z,99064.84
2023-09-15T23:05:17.846Z,99060.78
2023-09-15T23:07:44.791Z,99065.15
2023-09-15T23:10:12.304Z,99061.48
2023-09-15T23:12:39.439Z,99055.13
2023-09-15T23:15:07.999Z,99054.06
2023-09-15T23:17:35.262Z,99057.97
2023-09-15T23:20:02.659Z,99055.09
2023-09-15T23:22:31.600Z,99053.30
2023-09-15T23:24:58.873Z,99052.40
2023-09-15T23:27:29.299Z,99052.11
2023-09-15T23:29:56.816Z,99052.28
2023-09-15T23:32:24.346Z,99048.91
2023-09-15T23:34:51.264Z,99045.77
2023-09-15T23:37:19.923Z,99050.46
2023-09-15T23:39:48.274Z,99048.58
2023-09-15T23:42:16.250Z,99044.80
2023-09-15T23:44:43.908Z,99047.74
2023-09-15T23:47:12.615Z,99050.39
2023-09-15T23:49:39.488Z,99050.10
2023-09-15T23:52:07.187Z,99048.33
2023-09-15T23:54:34.180Z,99051.36
2023-09-15T23:57:01.169Z,99054.11
2023-09-15T23:59:29.371Z,99055.33
